sensor_id;sensor_type;location;lat;lon;timestamp;P1;durP1;ratioP1;P2;durP2;ratioP2
31848;SDS011;18414;59.352;18.152;2022-09-24T00:01:37;5.47;;;3.20;;
31848;SDS011;18414;59.352;18.152;2022-09-24T00:04:04;3.90;;;3.10;;
31848;SDS011;18414;59.352;18.152;2022-09-24T00:06:35;6.87;;;3.90;;
31848;SDS011;18414;59.352;18.152;2022-09-24T00:09:03;4.80;;;3.10;;
31848;SDS011;18414;59.352;18.152;2022-09-24T00:11:28;6.40;;;3.67;;
31848;SDS011;18414;59.352;18.152;2022-09-24T00:13:54;4.37;;;3.20;;
31848;SDS011;18414;59.352;18.152;2022-09-24T00:16:21;3.57;;;3.10;;
31848;SDS011;18414;59.352;18.152;2022-09-24T00:18:49;3.20;;;2.90;;
31848;SDS011;18414;59.352;18.152;2022-09-24T00:21:18;3.47;;;3.07;;
31848;SDS011;18414;59.352;18.152;2022-09-24T00:23:52;5.90;;;3.57;;
31848;SDS011;18414;59.352;18.152;2022-09-24T00:26:19;3.90;;;3.17;;
31848;SDS011;18414;59.352;18.152;2022-09-24T00:29:03;4.43;;;3.80;;
31848;SDS011;18414;59.352;18.152;2022-09-24T00:31:29;5.37;;;3.87;;
31848;SDS011;18414;59.352;18.152;2022-09-24T00:33:56;4.27;;;3.50;;
31848;SDS011;18414;59.352;18.152;2022-09-24T00:36:21;4.10;;;3.40;;
31848;SDS011;18414;59.352;18.152;2022-09-24T00:38:48;4.77;;;3.13;;
31848;SDS011;18414;59.352;18.152;2022-09-24T00:41:15;4.80;;;4.30;;
31848;SDS011;18414;59.352;18.152;2022-09-24T00:43:41;4.40;;;4.00;;
31848;SDS011;18414;59.352;18.152;2022-09-24T00:49:00;4.07;;;2.80;;
31848;SDS011;18414;59.352;18.152;2022-09-24T00:51:29;5.00;;;2.87;;
31848;SDS011;18414;59.352;18.152;2022-09-24T00:53:58;4.20;;;3.07;;
31848;SDS011;18414;59.352;18.152;2022-09-24T00:56:27;3.57;;;3.00;;
31848;SDS011;18414;59.352;18.152;2022-09-24T00:58:53;3.50;;;3.17;;
31848;SDS011;18414;59.352;18.152;2022-09-24T01:01:21;3.70;;;3.40;;
31848;SDS011;18414;59.352;18.152;2022-09-24T01:03:48;4.77;;;3.33;;
31848;SDS011;18414;59.352;18.152;2022-09-24T01:06:14;4.83;;;3.00;;
31848;SDS011;18414;59.352;18.152;2022-09-24T01:08:40;3.30;;;3.00;;
31848;SDS011;18414;59.352;18.152;2022-09-24T01:13:53;5.90;;;3.20;;
31848;SDS011;18414;59.352;18.152;2022-09-24T01:16:45;4.70;;;3.20;;
31848;SDS011;18414;59.352;18.152;2022-09-24T01:30:32;6.67;;;4.13;;
31848;SDS011;18414;59.352;18.152;2022-09-24T01:33:02;5.63;;;4.37;;
31848;SDS011;18414;59.352;18.152;2022-09-24T01:35:34;5.10;;;4.33;;
31848;SDS011;18414;59.352;18.152;2022-09-24T01:38:02;7.20;;;4.50;;
31848;SDS011;18414;59.352;18.152;2022-09-24T01:40:30;5.00;;;3.50;;
31848;SDS011;18414;59.352;18.152;2022-09-24T01:42:57;4.90;;;4.00;;
31848;SDS011;18414;59.352;18.152;2022-09-24T01:45:24;8.30;;;4.50;;
31848;SDS011;18414;59.352;18.152;2022-09-24T01:47:54;5.67;;;4.03;;
31848;SDS011;18414;59.352;18.152;2022-09-24T01:50:19;4.87;;;4.00;;
31848;SDS011;18414;59.352;18.152;2022-09-24T01:52:48;6.50;;;3.77;;
31848;SDS011;18414;59.352;18.152;2022-09-24T01:55:18;4.17;;;3.60;;
31848;SDS011;18414;59.352;18.152;2022-09-24T01:57:48;4.10;;;3.70;;
31848;SDS011;18414;59.352;18.152;2022-09-24T02:00:17;5.57;;;3.70;;
31848;SDS011;18414;59.352;18.152;2022-09-24T02:02:44;6.07;;;3.50;;
31848;SDS011;18414;59.352;18.152;2022-09-24T02:05:19;5.03;;;3.30;;
31848;SDS011;18414;59.352;18.152;2022-09-24T02:10:44;3.97;;;3.40;;
31848;SDS011;18414;59.352;18.152;2022-09-24T02:13:28;4.47;;;3.27;;
31848;SDS011;18414;59.352;18.152;2022-09-24T02:16:01;3.80;;;3.40;;
31848;SDS011;18414;59.352;18.152;2022-09-24T02:18:31;5.93;;;3.30;;
31848;SDS011;18414;59.352;18.152;2022-09-24T02:20:59;3.43;;;2.90;;
31848;SDS011;18414;59.352;18.152;2022-09-24T02:23:27;3.80;;;3.07;;
31848;SDS011;18414;59.352;18.152;2022-09-24T02:26:00;3.80;;;3.10;;
31848;SDS011;18414;59.352;18.152;2022-09-24T02:28:28;4.00;;;3.10;;
31848;SDS011;18414;59.352;18.152;2022-09-24T02:30:59;6.17;;;3.00;;
31848;SDS011;18414;59.352;18.152;2022-09-24T02:33:25;5.03;;;3.30;;
31848;SDS011;18414;59.352;18.152;2022-09-24T02:36:10;4.53;;;3.67;;
31848;SDS011;18414;59.352;18.152;2022-09-24T02:38:36;3.60;;;3.30;;
31848;SDS011;18414;59.352;18.152;2022-09-24T02:41:01;4.47;;;3.10;;
31848;SDS011;18414;59.352;18.152;2022-09-24T02:43:27;5.90;;;3.20;;
31848;SDS011;18414;59.352;18.152;2022-09-24T02:45:52;3.50;;;3.13;;
31848;SDS011;18414;59.352;18.152;2022-09-24T02:48:18;3.47;;;3.17;;
31848;SDS011;18414;59.352;18.152;2022-09-24T02:50:44;4.67;;;3.30;;
31848;SDS011;18414;59.352;18.152;2022-09-24T02:53:10;3.67;;;3.20;;
31848;SDS011;18414;59.352;18.152;2022-09-24T02:55:35;5.53;;;3.30;;
31848;SDS011;18414;59.352;18.152;2022-09-24T02:58:00;6.17;;;3.40;;
31848;SDS011;18414;59.352;18.152;2022-09-24T03:00:26;3.97;;;3.30;;
31848;SDS011;18414;59.352;18.152;2022-09-24T03:02:52;4.63;;;3.60;;
31848;SDS011;18414;59.352;18.152;2022-09-24T03:05:18;4.27;;;3.50;;
31848;SDS011;18414;59.352;18.152;2022-09-24T03:07:43;4.73;;;3.33;;
31848;SDS011;18414;59.352;18.152;2022-09-24T03:10:10;3.97;;;3.50;;
31848;SDS011;18414;59.352;18.152;2022-09-24T03:12:35;5.97;;;3.43;;
31848;SDS011;18414;59.352;18.152;2022-09-24T03:15:01;6.93;;;3.40;;
31848;SDS011;18414;59.352;18.152;2022-09-24T03:17:27;4.97;;;3.37;;
31848;SDS011;18414;59.352;18.152;2022-09-24T03:19:53;3.80;;;3.30;;
31848;SDS011;18414;59.352;18.152;2022-09-24T03:22:18;4.60;;;3.57;;
31848;SDS011;18414;59.352;18.152;2022-09-24T03:24:44;3.63;;;3.27;;
31848;SDS011;18414;59.352;18.152;2022-09-24T03:27:12;4.73;;;3.20;;
31848;SDS011;18414;59.352;18.152;2022-09-24T03:29:38;5.23;;;3.43;;
31848;SDS011;18414;59.352;18.152;2022-09-24T03:32:21;4.47;;;3.23;;
31848;SDS011;18414;59.352;18.152;2022-09-24T03:34:47;5.23;;;3.30;;
31848;SDS011;18414;59.352;18.152;2022-09-24T03:37:13;3.43;;;2.97;;
31848;SDS011;18414;59.352;18.152;2022-09-24T03:39:38;4.80;;;3.27;;
31848;SDS011;18414;59.352;18.152;2022-09-24T03:42:05;3.63;;;3.10;;
31848;SDS011;18414;59.352;18.152;2022-09-24T03:44:30;3.83;;;3.40;;
31848;SDS011;18414;59.352;18.152;2022-09-24T03:46:56;3.33;;;3.03;;
31848;SDS011;18414;59.352;18.152;2022-09-24T03:49:21;6.93;;;3.47;;
31848;SDS011;18414;59.352;18.152;2022-09-24T03:51:47;4.10;;;3.70;;
31848;SDS011;18414;59.352;18.152;2022-09-24T03:54:14;3.90;;;3.30;;
31848;SDS011;18414;59.352;18.152;2022-09-24T03:56:40;5.47;;;3.50;;
31848;SDS011;18414;59.352;18.152;2022-09-24T03:59:06;11.33;;;5.30;;
31848;SDS011;18414;59.352;18.152;2022-09-24T04:01:31;3.83;;;3.37;;
31848;SDS011;18414;59.352;18.152;2022-09-24T04:03:58;3.83;;;3.00;;
31848;SDS011;18414;59.352;18.152;2022-09-24T04:06:24;5.70;;;3.20;;
31848;SDS011;18414;59.352;18.152;2022-09-24T04:08:51;3.73;;;3.20;;
31848;SDS011;18414;59.352;18.152;2022-09-24T04:11:16;4.17;;;3.70;;
31848;SDS011;18414;59.352;18.152;2022-09-24T04:13:41;4.00;;;3.60;;
31848;SDS011;18414;59.352;18.152;2022-09-24T04:16:07;3.73;;;3.23;;
31848;SDS011;18414;59.352;18.152;2022-09-24T04:18:32;4.70;;;3.30;;
31848;SDS011;18414;59.352;18.152;2022-09-24T04:20:58;3.87;;;3.40;;
31848;SDS011;18414;59.352;18.152;2022-09-24T04:23:24;4.27;;;3.30;;
31848;SDS011;18414;59.352;18.152;2022-09-24T04:25:49;5.07;;;3.40;;
31848;SDS011;18414;59.352;18.152;2022-09-24T04:28:15;4.73;;;3.40;;
31848;SDS011;18414;59.352;18.152;2022-09-24T04:30:40;4.43;;;3.63;;
31848;SDS011;18414;59.352;18.152;2022-09-24T04:33:06;3.93;;;3.50;;
31848;SDS011;18414;59.352;18.152;2022-09-24T04:35:32;4.60;;;3.33;;
31848;SDS011;18414;59.352;18.152;2022-09-24T04:38:00;3.73;;;3.17;;
31848;SDS011;18414;59.352;18.152;2022-09-24T04:40:26;3.83;;;3.00;;
31848;SDS011;18414;59.352;18.152;2022-09-24T04:42:51;4.63;;;3.00;;
31848;SDS011;18414;59.352;18.152;2022-09-24T04:45:16;5.47;;;2.83;;
31848;SDS011;18414;59.352;18.152;2022-09-24T04:47:43;3.07;;;2.77;;
31848;SDS011;18414;59.352;18.152;2022-09-24T04:50:08;4.10;;;3.07;;
31848;SDS011;18414;59.352;18.152;2022-09-24T04:52:35;4.37;;;2.80;;
31848;SDS011;18414;59.352;18.152;2022-09-24T04:55:01;3.00;;;2.70;;
31848;SDS011;18414;59.352;18.152;2022-09-24T04:57:27;4.83;;;3.00;;
31848;SDS011;18414;59.352;18.152;2022-09-24T04:59:53;3.20;;;2.90;;
31848;SDS011;18414;59.352;18.152;2022-09-24T05:02:19;3.70;;;3.20;;
31848;SDS011;18414;59.352;18.152;2022-09-24T05:04:44;4.93;;;3.60;;
31848;SDS011;18414;59.352;18.152;2022-09-24T05:07:10;4.33;;;3.40;;
31848;SDS011;18414;59.352;18.152;2022-09-24T05:09:35;3.60;;;3.17;;
31848;SDS011;18414;59.352;18.152;2022-09-24T05:12:01;6.67;;;3.37;;
31848;SDS011;18414;59.352;18.152;2022-09-24T05:14:28;4.80;;;2.80;;
31848;SDS011;18414;59.352;18.152;2022-09-24T05:16:53;6.97;;;3.20;;
31848;SDS011;18414;59.352;18.152;2022-09-24T05:19:18;4.17;;;3.00;;
31848;SDS011;18414;59.352;18.152;2022-09-24T05:21:44;6.87;;;3.10;;
31848;SDS011;18414;59.352;18.152;2022-09-24T05:24:10;5.43;;;2.63;;
31848;SDS011;18414;59.352;18.152;2022-09-24T05:26:36;2.63;;;2.43;;
31848;SDS011;18414;59.352;18.152;2022-09-24T05:29:20;4.47;;;3.23;;
31848;SDS011;18414;59.352;18.152;2022-09-24T05:31:45;3.73;;;2.97;;
31848;SDS011;18414;59.352;18.152;2022-09-24T05:34:10;3.77;;;2.63;;
31848;SDS011;18414;59.352;18.152;2022-09-24T05:36:38;3.20;;;2.90;;
31848;SDS011;18414;59.352;18.152;2022-09-24T05:39:04;5.43;;;3.23;;
31848;SDS011;18414;59.352;18.152;2022-09-24T05:41:29;4.03;;;3.63;;
31848;SDS011;18414;59.352;18.152;2022-09-24T05:43:54;3.40;;;2.97;;
31848;SDS011;18414;59.352;18.152;2022-09-24T05:46:21;3.27;;;2.83;;
31848;SDS011;18414;59.352;18.152;2022-09-24T05:48:46;4.73;;;3.30;;
31848;SDS011;18414;59.352;18.152;2022-09-24T05:51:11;6.47;;;3.40;;
31848;SDS011;18414;59.352;18.152;2022-09-24T05:53:37;5.80;;;3.50;;
31848;SDS011;18414;59.352;18.152;2022-09-24T05:56:02;6.27;;;3.23;;
31848;SDS011;18414;59.352;18.152;2022-09-24T05:58:27;4.00;;;3.03;;
31848;SDS011;18414;59.352;18.152;2022-09-24T06:00:53;3.83;;;3.13;;
31848;SDS011;18414;59.352;18.152;2022-09-24T06:03:18;6.70;;;3.33;;
31848;SDS011;18414;59.352;18.152;2022-09-24T06:05:45;3.73;;;3.30;;
31848;SDS011;18414;59.352;18.152;2022-09-24T06:08:12;4.30;;;2.97;;
31848;SDS011;18414;59.352;18.152;2022-09-24T06:10:49;4.08;;;3.20;;
31848;SDS011;18414;59.352;18.152;2022-09-24T06:13:17;6.77;;;3.10;;
31848;SDS011;18414;59.352;18.152;2022-09-24T06:15:44;4.20;;;3.10;;
31848;SDS011;18414;59.352;18.152;2022-09-24T06:18:10;4.23;;;3.20;;
31848;SDS011;18414;59.352;18.152;2022-09-24T06:20:36;3.27;;;2.97;;
31848;SDS011;18414;59.352;18.152;2022-09-24T06:23:02;3.80;;;3.00;;
31848;SDS011;18414;59.352;18.152;2022-09-24T06:25:29;3.73;;;3.33;;
31848;SDS011;18414;59.352;18.152;2022-09-24T06:27:58;3.93;;;2.90;;
31848;SDS011;18414;59.352;18.152;2022-09-24T06:33:03;3.73;;;3.10;;
31848;SDS011;18414;59.352;18.152;2022-09-24T06:35:32;3.13;;;2.83;;
31848;SDS011;18414;59.352;18.152;2022-09-24T06:37:58;3.40;;;3.10;;
31848;SDS011;18414;59.352;18.152;2022-09-24T06:40:25;4.22;;;2.80;;
31848;SDS011;18414;59.352;18.152;2022-09-24T06:42:51;4.03;;;3.00;;
31848;SDS011;18414;59.352;18.152;2022-09-24T06:45:17;5.57;;;2.65;;
31848;SDS011;18414;59.352;18.152;2022-09-24T06:47:50;3.22;;;2.92;;
31848;SDS011;18414;59.352;18.152;2022-09-24T06:50:20;3.37;;;2.60;;
31848;SDS011;18414;59.352;18.152;2022-09-24T06:52:47;4.28;;;3.38;;
31848;SDS011;18414;59.352;18.152;2022-09-24T06:55:14;6.93;;;3.17;;
31848;SDS011;18414;59.352;18.152;2022-09-24T06:57:39;5.45;;;3.40;;
31848;SDS011;18414;59.352;18.152;2022-09-24T07:00:06;5.95;;;3.63;;
31848;SDS011;18414;59.352;18.152;2022-09-24T07:02:31;5.95;;;3.50;;
31848;SDS011;18414;59.352;18.152;2022-09-24T07:04:57;4.18;;;3.63;;
31848;SDS011;18414;59.352;18.152;2022-09-24T07:07:22;5.43;;;3.88;;
31848;SDS011;18414;59.352;18.152;2022-09-24T07:09:54;4.28;;;3.40;;
31848;SDS011;18414;59.352;18.152;2022-09-24T07:12:27;4.20;;;3.75;;
31848;SDS011;18414;59.352;18.152;2022-09-24T07:14:56;4.32;;;3.47;;
31848;SDS011;18414;59.352;18.152;2022-09-24T07:17:22;3.65;;;3.25;;
31848;SDS011;18414;59.352;18.152;2022-09-24T07:19:48;5.63;;;3.55;;
31848;SDS011;18414;59.352;18.152;2022-09-24T07:22:14;6.25;;;3.58;;
31848;SDS011;18414;59.352;18.152;2022-09-24T07:24:40;6.03;;;4.05;;
31848;SDS011;18414;59.352;18.152;2022-09-24T07:27:05;8.27;;;4.20;;
31848;SDS011;18414;59.352;18.152;2022-09-24T07:29:32;4.07;;;3.38;;
31848;SDS011;18414;59.352;18.152;2022-09-24T07:31:57;6.32;;;4.30;;
31848;SDS011;18414;59.352;18.152;2022-09-24T07:34:23;6.35;;;4.10;;
31848;SDS011;18414;59.352;18.152;2022-09-24T07:36:48;4.05;;;3.50;;
31848;SDS011;18414;59.352;18.152;2022-09-24T07:39:14;4.35;;;3.40;;
31848;SDS011;18414;59.352;18.152;2022-09-24T07:41:40;4.25;;;3.25;;
31848;SDS011;18414;59.352;18.152;2022-09-24T07:44:06;3.92;;;3.08;;
31848;SDS011;18414;59.352;18.152;2022-09-24T07:46:34;4.38;;;3.97;;
31848;SDS011;18414;59.352;18.152;2022-09-24T07:48:59;4.80;;;3.42;;
31848;SDS011;18414;59.352;18.152;2022-09-24T07:51:25;5.20;;;2.90;;
31848;SDS011;18414;59.352;18.152;2022-09-24T07:53:55;2.90;;;2.60;;
31848;SDS011;18414;59.352;18.152;2022-09-24T07:56:21;3.35;;;2.50;;
31848;SDS011;18414;59.352;18.152;2022-09-24T07:58:51;3.60;;;2.38;;
31848;SDS011;18414;59.352;18.152;2022-09-24T08:01:17;2.90;;;2.58;;
31848;SDS011;18414;59.352;18.152;2022-09-24T08:03:43;4.22;;;2.63;;
31848;SDS011;18414;59.352;18.152;2022-09-24T08:06:10;6.18;;;2.65;;
31848;SDS011;18414;59.352;18.152;2022-09-24T08:08:35;5.35;;;2.50;;
31848;SDS011;18414;59.352;18.152;2022-09-24T08:11:03;3.70;;;2.38;;
31848;SDS011;18414;59.352;18.152;2022-09-24T08:13:50;3.90;;;3.00;;
31848;SDS011;18414;59.352;18.152;2022-09-24T08:16:16;2.55;;;2.20;;
31848;SDS011;18414;59.352;18.152;2022-09-24T08:18:45;3.83;;;2.30;;
31848;SDS011;18414;59.352;18.152;2022-09-24T08:21:11;6.63;;;2.70;;
31848;SDS011;18414;59.352;18.152;2022-09-24T08:23:39;4.03;;;2.35;;
31848;SDS011;18414;59.352;18.152;2022-09-24T08:26:05;3.25;;;2.17;;
31848;SDS011;18414;59.352;18.152;2022-09-24T08:28:31;2.72;;;2.13;;
31848;SDS011;18414;59.352;18.152;2022-09-24T08:30:57;5.78;;;2.40;;
31848;SDS011;18414;59.352;18.152;2022-09-24T08:33:25;3.58;;;2.10;;
31848;SDS011;18414;59.352;18.152;2022-09-24T08:35:55;2.95;;;2.15;;
31848;SDS011;18414;59.352;18.152;2022-09-24T08:38:25;3.33;;;2.10;;
31848;SDS011;18414;59.352;18.152;2022-09-24T08:41:00;2.70;;;2.13;;
31848;SDS011;18414;59.352;18.152;2022-09-24T08:43:36;3.08;;;2.20;;
31848;SDS011;18414;59.352;18.152;2022-09-24T08:46:07;4.05;;;2.20;;
31848;SDS011;18414;59.352;18.152;2022-09-24T08:48:56;5.07;;;2.10;;
31848;SDS011;18414;59.352;18.152;2022-09-24T08:51:23;3.47;;;2.13;;
31848;SDS011;18414;59.352;18.152;2022-09-24T08:56:26;3.28;;;1.90;;
31848;SDS011;18414;59.352;18.152;2022-09-24T08:59:04;4.35;;;2.10;;
31848;SDS011;18414;59.352;18.152;2022-09-24T09:10:03;3.63;;;1.80;;
31848;SDS011;18414;59.352;18.152;2022-09-24T09:12:41;3.30;;;1.80;;
31848;SDS011;18414;59.352;18.152;2022-09-24T09:20:31;3.90;;;2.00;;
31848;SDS011;18414;59.352;18.152;2022-09-24T09:23:02;2.75;;;1.65;;
31848;SDS011;18414;59.352;18.152;2022-09-24T09:25:29;4.60;;;1.90;;
31848;SDS011;18414;59.352;18.152;2022-09-24T09:28:16;4.20;;;2.30;;
31848;SDS011;18414;59.352;18.152;2022-09-24T09:33:42;2.95;;;1.85;;
31848;SDS011;18414;59.352;18.152;2022-09-24T09:36:40;3.97;;;1.95;;
31848;SDS011;18414;59.352;18.152;2022-09-24T09:44:43;3.30;;;1.80;;
31848;SDS011;18414;59.352;18.152;2022-09-24T09:47:18;3.65;;;1.70;;
31848;SDS011;18414;59.352;18.152;2022-09-24T09:49:52;3.28;;;1.65;;
31848;SDS011;18414;59.352;18.152;2022-09-24T09:52:21;3.22;;;2.03;;
31848;SDS011;18414;59.352;18.152;2022-09-24T09:54:49;2.25;;;2.00;;
31848;SDS011;18414;59.352;18.152;2022-09-24T09:57:15;2.95;;;1.90;;
31848;SDS011;18414;59.352;18.152;2022-09-24T09:59:49;4.65;;;1.77;;
31848;SDS011;18414;59.352;18.152;2022-09-24T10:02:21;3.00;;;1.63;;
31848;SDS011;18414;59.352;18.152;2022-09-24T10:04:51;7.38;;;2.00;;
31848;SDS011;18414;59.352;18.152;2022-09-24T10:07:18;5.25;;;1.92;;
31848;SDS011;18414;59.352;18.152;2022-09-24T10:09:43;2.15;;;1.63;;
31848;SDS011;18414;59.352;18.152;2022-09-24T10:12:17;5.13;;;2.08;;
31848;SDS011;18414;59.352;18.152;2022-09-24T10:14:55;5.63;;;2.03;;
31848;SDS011;18414;59.352;18.152;2022-09-24T10:17:49;2.55;;;1.80;;
31848;SDS011;18414;59.352;18.152;2022-09-24T10:20:17;3.08;;;1.90;;
31848;SDS011;18414;59.352;18.152;2022-09-24T10:22:50;2.33;;;1.90;;
31848;SDS011;18414;59.352;18.152;2022-09-24T10:25:18;2.47;;;1.90;;
31848;SDS011;18414;59.352;18.152;2022-09-24T10:27:48;3.30;;;1.98;;
31848;SDS011;18414;59.352;18.152;2022-09-24T10:30:14;3.83;;;1.80;;
31848;SDS011;18414;59.352;18.152;2022-09-24T10:33:10;5.65;;;2.00;;
31848;SDS011;18414;59.352;18.152;2022-09-24T10:35:36;4.20;;;1.95;;
31848;SDS011;18414;59.352;18.152;2022-09-24T10:38:23;2.95;;;1.40;;
31848;SDS011;18414;59.352;18.152;2022-09-24T10:40:49;5.35;;;1.77;;
31848;SDS011;18414;59.352;18.152;2022-09-24T10:43:18;4.90;;;1.80;;
31848;SDS011;18414;59.352;18.152;2022-09-24T10:48:26;7.68;;;3.13;;
31848;SDS011;18414;59.352;18.152;2022-09-24T10:53:51;2.65;;;1.55;;
31848;SDS011;18414;59.352;18.152;2022-09-24T10:56:46;3.72;;;1.45;;
31848;SDS011;18414;59.352;18.152;2022-09-24T11:02:08;5.63;;;1.63;;
31848;SDS011;18414;59.352;18.152;2022-09-24T11:05:03;2.17;;;1.67;;
31848;SDS011;18414;59.352;18.152;2022-09-24T11:24:13;4.47;;;1.70;;
31848;SDS011;18414;59.352;18.152;2022-09-24T11:38:20;3.15;;;1.55;;
31848;SDS011;18414;59.352;18.152;2022-09-24T11:43:47;3.80;;;1.92;;
31848;SDS011;18414;59.352;18.152;2022-09-24T11:54:26;2.38;;;1.60;;
31848;SDS011;18414;59.352;18.152;2022-09-24T12:00:13;3.53;;;1.73;;
31848;SDS011;18414;59.352;18.152;2022-09-24T12:02:39;4.93;;;1.90;;
31848;SDS011;18414;59.352;18.152;2022-09-24T12:08:27;2.70;;;1.75;;
31848;SDS011;18414;59.352;18.152;2022-09-24T12:11:05;3.13;;;1.77;;
31848;SDS011;18414;59.352;18.152;2022-09-24T12:13:35;3.85;;;1.77;;
31848;SDS011;18414;59.352;18.152;2022-09-24T12:16:10;2.75;;;1.58;;
31848;SDS011;18414;59.352;18.152;2022-09-24T12:21:14;2.78;;;1.58;;
31848;SDS011;18414;59.352;18.152;2022-09-24T12:23:43;2.50;;;1.50;;
31848;SDS011;18414;59.352;18.152;2022-09-24T12:26:10;2.53;;;1.52;;
31848;SDS011;18414;59.352;18.152;2022-09-24T12:28:42;3.35;;;1.70;;
31848;SDS011;18414;59.352;18.152;2022-09-24T12:35:22;3.45;;;1.80;;
31848;SDS011;18414;59.352;18.152;2022-09-24T12:38:09;2.30;;;1.90;;
31848;SDS011;18414;59.352;18.152;2022-09-24T12:43:56;2.08;;;1.60;;
31848;SDS011;18414;59.352;18.152;2022-09-24T12:46:50;3.25;;;1.75;;
31848;SDS011;18414;59.352;18.152;2022-09-24T12:51:42;2.97;;;1.70;;
31848;SDS011;18414;59.352;18.152;2022-09-24T12:57:08;2.78;;;2.08;;
31848;SDS011;18414;59.352;18.152;2022-09-24T13:02:26;3.67;;;2.15;;
31848;SDS011;18414;59.352;18.152;2022-09-24T13:05:15;2.28;;;1.70;;
31848;SDS011;18414;59.352;18.152;2022-09-24T13:07:57;1.98;;;1.67;;
31848;SDS011;18414;59.352;18.152;2022-09-24T13:10:33;3.83;;;1.90;;
31848;SDS011;18414;59.352;18.152;2022-09-24T13:13:00;2.95;;;1.90;;
31848;SDS011;18414;59.352;18.152;2022-09-24T13:15:33;3.38;;;1.90;;
31848;SDS011;18414;59.352;18.152;2022-09-24T13:18:00;3.92;;;1.80;;
31848;SDS011;18414;59.352;18.152;2022-09-24T13:20:32;4.65;;;1.80;;
31848;SDS011;18414;59.352;18.152;2022-09-24T13:23:10;3.50;;;1.90;;
31848;SDS011;18414;59.352;18.152;2022-09-24T13:25:38;3.10;;;1.83;;
31848;SDS011;18414;59.352;18.152;2022-09-24T13:28:21;5.20;;;1.67;;
31848;SDS011;18414;59.352;18.152;2022-09-24T13:31:26;6.10;;;1.90;;
31848;SDS011;18414;59.352;18.152;2022-09-24T13:33:39;2.55;;;1.52;;
31848;SDS011;18414;59.352;18.152;2022-09-24T13:36:14;3.28;;;1.60;;
31848;SDS011;18414;59.352;18.152;2022-09-24T13:44:55;4.68;;;1.52;;
31848;SDS011;18414;59.352;18.152;2022-09-24T13:47:26;2.85;;;1.65;;
31848;SDS011;18414;59.352;18.152;2022-09-24T13:49:58;6.05;;;1.63;;
31848;SDS011;18414;59.352;18.152;2022-09-24T13:52:31;3.38;;;1.65;;
31848;SDS011;18414;59.352;18.152;2022-09-24T13:55:00;4.05;;;1.75;;
31848;SDS011;18414;59.352;18.152;2022-09-24T13:57:31;3.05;;;1.60;;
31848;SDS011;18414;59.352;18.152;2022-09-24T14:02:35;3.65;;;1.80;;
31848;SDS011;18414;59.352;18.152;2022-09-24T14:05:02;6.53;;;1.77;;
31848;SDS011;18414;59.352;18.152;2022-09-24T14:07:27;2.33;;;1.50;;
31848;SDS011;18414;59.352;18.152;2022-09-24T14:10:09;3.55;;;1.48;;
31848;SDS011;18414;59.352;18.152;2022-09-24T14:12:38;4.32;;;1.70;;
31848;SDS011;18414;59.352;18.152;2022-09-24T14:15:08;3.88;;;1.83;;
31848;SDS011;18414;59.352;18.152;2022-09-24T14:17:38;4.10;;;1.80;;
31848;SDS011;18414;59.352;18.152;2022-09-24T14:20:04;4.20;;;1.98;;
31848;SDS011;18414;59.352;18.152;2022-09-24T14:22:34;3.47;;;1.40;;
31848;SDS011;18414;59.352;18.152;2022-09-24T14:25:05;4.88;;;2.17;;
31848;SDS011;18414;59.352;18.152;2022-09-24T14:27:48;3.78;;;1.60;;
31848;SDS011;18414;59.352;18.152;2022-09-24T14:30:21;3.63;;;2.38;;
31848;SDS011;18414;59.352;18.152;2022-09-24T14:32:59;2.85;;;1.70;;
31848;SDS011;18414;59.352;18.152;2022-09-24T14:35:29;2.55;;;1.73;;
31848;SDS011;18414;59.352;18.152;2022-09-24T14:40:28;3.35;;;2.08;;
31848;SDS011;18414;59.352;18.152;2022-09-24T14:42:57;2.60;;;1.92;;
31848;SDS011;18414;59.352;18.152;2022-09-24T14:45:31;4.82;;;2.20;;
31848;SDS011;18414;59.352;18.152;2022-09-24T14:48:14;3.58;;;1.80;;
31848;SDS011;18414;59.352;18.152;2022-09-24T14:50:43;3.08;;;1.92;;
31848;SDS011;18414;59.352;18.152;2022-09-24T14:55:39;3.28;;;2.22;;
31848;SDS011;18414;59.352;18.152;2022-09-24T14:58:20;3.58;;;2.25;;
31848;SDS011;18414;59.352;18.152;2022-09-24T15:00:47;2.97;;;2.00;;
31848;SDS011;18414;59.352;18.152;2022-09-24T15:03:15;3.58;;;2.10;;
31848;SDS011;18414;59.352;18.152;2022-09-24T15:05:43;3.95;;;1.98;;
31848;SDS011;18414;59.352;18.152;2022-09-24T15:10:54;2.80;;;2.30;;
31848;SDS011;18414;59.352;18.152;2022-09-24T15:13:34;4.10;;;2.50;;
31848;SDS011;18414;59.352;18.152;2022-09-24T15:16:20;3.63;;;2.42;;
31848;SDS011;18414;59.352;18.152;2022-09-24T15:18:57;4.88;;;2.45;;
31848;SDS011;18414;59.352;18.152;2022-09-24T15:21:34;2.92;;;2.28;;
31848;SDS011;18414;59.352;18.152;2022-09-24T15:24:00;4.40;;;2.50;;
31848;SDS011;18414;59.352;18.152;2022-09-24T15:26:27;2.80;;;2.30;;
31848;SDS011;18414;59.352;18.152;2022-09-24T15:28:55;3.22;;;2.50;;
31848;SDS011;18414;59.352;18.152;2022-09-24T15:31:21;3.60;;;2.45;;
31848;SDS011;18414;59.352;18.152;2022-09-24T15:33:47;3.60;;;2.50;;
31848;SDS011;18414;59.352;18.152;2022-09-24T15:36:12;3.88;;;2.65;;
31848;SDS011;18414;59.352;18.152;2022-09-24T15:38:39;2.65;;;2.40;;
31848;SDS011;18414;59.352;18.152;2022-09-24T15:41:05;4.40;;;2.42;;
31848;SDS011;18414;59.352;18.152;2022-09-24T15:43:32;3.90;;;2.58;;
31848;SDS011;18414;59.352;18.152;2022-09-24T15:45:57;4.07;;;2.38;;
31848;SDS011;18414;59.352;18.152;2022-09-24T15:48:22;4.68;;;2.63;;
31848;SDS011;18414;59.352;18.152;2022-09-24T15:50:48;4.70;;;2.97;;
31848;SDS011;18414;59.352;18.152;2022-09-24T15:53:22;4.57;;;2.40;;
31848;SDS011;18414;59.352;18.152;2022-09-24T15:55:51;3.38;;;2.40;;
31848;SDS011;18414;59.352;18.152;2022-09-24T15:58:18;5.50;;;2.50;;
31848;SDS011;18414;59.352;18.152;2022-09-24T16:00:45;7.50;;;2.83;;
31848;SDS011;18414;59.352;18.152;2022-09-24T16:03:13;3.75;;;2.22;;
31848;SDS011;18414;59.352;18.152;2022-09-24T16:05:45;4.25;;;2.60;;
31848;SDS011;18414;59.352;18.152;2022-09-24T16:08:11;4.18;;;2.55;;
31848;SDS011;18414;59.352;18.152;2022-09-24T16:10:37;4.40;;;2.60;;
31848;SDS011;18414;59.352;18.152;2022-09-24T16:13:02;3.25;;;2.50;;
31848;SDS011;18414;59.352;18.152;2022-09-24T16:15:28;4.88;;;2.83;;
31848;SDS011;18414;59.352;18.152;2022-09-24T16:17:53;5.15;;;3.00;;
31848;SDS011;18414;59.352;18.152;2022-09-24T16:20:19;3.38;;;2.40;;
31848;SDS011;18414;59.352;18.152;2022-09-24T16:22:44;5.90;;;2.80;;
31848;SDS011;18414;59.352;18.152;2022-09-24T16:25:09;4.75;;;2.95;;
31848;SDS011;18414;59.352;18.152;2022-09-24T16:27:35;4.55;;;2.75;;
31848;SDS011;18414;59.352;18.152;2022-09-24T16:30:02;3.90;;;2.70;;
31848;SDS011;18414;59.352;18.152;2022-09-24T16:32:29;6.60;;;2.80;;
31848;SDS011;18414;59.352;18.152;2022-09-24T16:34:54;5.03;;;2.75;;
31848;SDS011;18414;59.352;18.152;2022-09-24T16:37:21;3.90;;;3.00;;
31848;SDS011;18414;59.352;18.152;2022-09-24T16:39:47;6.07;;;2.50;;
31848;SDS011;18414;59.352;18.152;2022-09-24T16:42:12;4.88;;;2.90;;
31848;SDS011;18414;59.352;18.152;2022-09-24T16:44:38;3.55;;;2.70;;
31848;SDS011;18414;59.352;18.152;2022-09-24T16:47:03;3.10;;;2.60;;
31848;SDS011;18414;59.352;18.152;2022-09-24T16:49:28;6.55;;;2.58;;
31848;SDS011;18414;59.352;18.152;2022-09-24T16:51:54;7.80;;;2.80;;
31848;SDS011;18414;59.352;18.152;2022-09-24T16:54:19;5.22;;;2.47;;
31848;SDS011;18414;59.352;18.152;2022-09-24T16:56:47;3.15;;;2.65;;
31848;SDS011;18414;59.352;18.152;2022-09-24T16:59:14;4.90;;;3.08;;
31848;SDS011;18414;59.352;18.152;2022-09-24T17:01:40;4.03;;;2.90;;